Westphalia, Michigan
Current Conditions -  °F | °C
As of 3:14 PM on Saturday 25 Oct 2014 (Local Time) from KY70 Reporting Station
Clear Clear  
Wind Chill: 67°   Ceiling: Unl
Heat Index: 67°   Visibility: 10mi
Dew Point: 35°   Wind: 22mph
Humidity: 30%   Direction: 290°WNW
Pressure: 29.77"   Gusts: 32mph
Location:  42.93°N, 84.8°W
Report Text: KY70 251914Z AUTO 29019G28KT 10SM CLR 20/02 A2977 RMK AO2 T01950015
Loading
Personal Weather Stations






























Interactive Weather Map
Tropical Storm Tracking
New forecast layout! Learn more

10-Day Weather Forecast

Advertisements
Track Severe Weather on mobile